Welcome to Northern Hawkes Bay. New Zealand.
PWS Header
      nz Flag



Hit Counter


W3C Valid W3C Valid logo


    Wairoa

Select any of the Stations below to visit their websites.










Historic Data from Weather Underground
Select the location of interest below. Wairoa is the default. Please have patience, this Data is slow to load in.
Northern Hawkes Bay Historical Data
Daily Summary for October 9, 2017 Units:  Metric    English   Both
« Previous Day
Next Day »
Daily Weekly Monthly Yearly Custom
  High: Low: Average:
Temperature: 18.1 °C 11.8 °C 14 °C
Dew Point: 17.1 °C 11.4 °C 13.3 °C
Humidity: 99% 83% 96%
Wind Speed: 14.8km/h 0.0km/h 2.7km/h
Wind Gust: 24.5km/h - -
Wind- - SSE
Pressure: 1015.1 hPa 1008.7 hPa -
Precipitation: 12.7 mm    
Historical Graphs
 
 
Tabular Data for October 9, 2017
Time Temperature Dew Point Pressure Wind Wind Speed Wind Gust Humidity Rainfall Rate (Hourly) solar
00:04 14.4 °C 11.9 °C 1015.1 hPa East 5.0 km/h 9.7 km/h 85% 0.0 mm 0 W/m2
00:09 14.5 °C 12.0 °C 1015.1 hPa East 5.0 km/h 9.7 km/h 85% 0.0 mm 0 W/m2
00:14 14.6 °C 11.9 °C 1014.8 hPa East 3.5 km/h 11.1 km/h 84% 0.0 mm 0 W/m2
00:19 14.6 °C 11.9 °C 1014.8 hPa East 3.5 km/h 11.1 km/h 84% 0.0 mm 0 W/m2
00:24 14.4 °C 11.7 °C 1014.8 hPa East 2.6 km/h 8.7 km/h 84% 0.0 mm 0 W/m2
00:29 14.0 °C 11.5 °C 1015.1 hPa Calm   7.2 km/h 85% 0.0 mm 0 W/m2
00:39 13.4 °C 11.4 °C 1014.8 hPa Calm   1.1 km/h 88% 0.0 mm 0 W/m2
00:45 13.3 °C 11.6 °C 1014.8 hPa Calm   1.1 km/h 89% 0.0 mm 0 W/m2
00:50 13.2 °C 11.6 °C 1014.8 hPa NE 2.6 km/h 6.1 km/h 90% 0.0 mm 0 W/m2
01:00 13.2 °C 11.8 °C 1014.8 hPa Calm   6.1 km/h 91% 0.0 mm 0 W/m2
01:10 12.8 °C 11.6 °C 1014.4 hPa North 1.1 km/h 3.5 km/h 92% 0.0 mm 0 W/m2
01:15 12.6 °C 11.5 °C 1014.4 hPa NW 3.5 km/h 5.0 km/h 93% 0.0 mm 0 W/m2
01:20 12.5 °C 11.7 °C 1014.4 hPa Calm   6.1 km/h 95% 0.0 mm 0 W/m2
01:25 12.4 °C 11.8 °C 1014.4 hPa NW 1.1 km/h 6.1 km/h 96% 0.0 mm 0 W/m2
01:30 12.3 °C 11.7 °C 1014.4 hPa Calm   2.6 km/h 96% 0.0 mm 0 W/m2
01:35 12.2 °C 11.7 °C 1014.4 hPa Calm   2.6 km/h 97% 0.0 mm 0 W/m2
01:40 12.2 °C 11.7 °C 1014.4 hPa Calm   1.1 km/h 97% 0.0 mm 0 W/m2
01:50 12.1 °C 11.7 °C 1014.4 hPa Calm   2.6 km/h 97% 0.0 mm 0 W/m2
01:55 12.1 °C 11.7 °C 1014.1 hPa Calm   2.6 km/h 97% 0.0 mm 0 W/m2
02:00 12.1 °C 11.7 °C 1014.4 hPa Calm     97% 0.0 mm 0 W/m2
02:05 12.1 °C 11.7 °C 1014.4 hPa Calm   2.6 km/h 97% 0.0 mm 0 W/m2
02:10 12.0 °C 11.6 °C 1014.1 hPa Calm   2.6 km/h 97% 0.0 mm 0 W/m2
02:15 12.0 °C 11.6 °C 1014.1 hPa Calm     97% 0.0 mm 0 W/m2
02:20 12.0 °C 11.6 °C 1014.1 hPa Calm     97% 0.0 mm 0 W/m2
02:25 12.0 °C 11.6 °C 1014.1 hPa Calm     97% 0.0 mm 0 W/m2
02:30 12.1 °C 11.7 °C 1014.1 hPa Calm   2.6 km/h 97% 0.0 mm 0 W/m2
02:35 12.2 °C 11.7 °C 1014.1 hPa Calm   2.6 km/h 97% 0.0 mm 0 W/m2
02:40 12.2 °C 11.7 °C 1014.1 hPa Calm   2.6 km/h 97% 0.0 mm 0 W/m2
02:46 12.3 °C 11.8 °C 1013.8 hPa Calm   7.2 km/h 97% 0.0 mm 0 W/m2
02:51 12.4 °C 11.9 °C 1013.8 hPa Calm   7.2 km/h 97% 0.0 mm 0 W/m2
02:56 12.5 °C 12.1 °C 1013.8 hPa Calm   2.6 km/h 97% 0.0 mm 0 W/m2
03:06 12.5 °C 12.1 °C 1013.4 hPa Calm   1.1 km/h 97% 0.3 mm 0 W/m2
03:11 12.6 °C 12.2 °C 1013.4 hPa Calm   1.1 km/h 97% 0.3 mm 0 W/m2
03:16 12.6 °C 12.2 °C 1013.4 hPa Calm   1.1 km/h 97% 0.3 mm 0 W/m2
03:21 12.6 °C 12.2 °C 1013.4 hPa Calm     97% 0.3 mm 0 W/m2
03:26 12.6 °C 12.2 °C 1013.4 hPa Calm   1.1 km/h 97% 0.3 mm 0 W/m2
03:31 12.7 °C 12.2 °C 1013.4 hPa North 1.1 km/h 2.6 km/h 97% 0.3 mm 0 W/m2
03:36 12.7 °C 12.2 °C 1013.4 hPa Calm   2.6 km/h 97% 0.3 mm 0 W/m2
03:41 12.6 °C 12.2 °C 1013.4 hPa Calm   2.6 km/h 97% 0.3 mm 0 W/m2
03:46 12.6 °C 12.2 °C 1013.4 hPa Calm     97% 0.3 mm 0 W/m2
03:52 12.6 °C 12.2 °C 1013.4 hPa Calm     97% 0.5 mm 0 W/m2
03:57 12.6 °C 12.2 °C 1013.4 hPa Calm     97% 0.5 mm 0 W/m2
04:02 12.5 °C 12.1 °C 1013.1 hPa Calm     97% 0.5 mm 0 W/m2
04:07 12.5 °C 12.1 °C 1013.1 hPa Calm     97% 0.3 mm 0 W/m2
04:12 12.5 °C 12.1 °C 1013.1 hPa Calm     97% 0.3 mm 0 W/m2
04:17 12.5 °C 12.1 °C 1012.8 hPa Calm     97% 0.5 mm 0 W/m2
04:22 12.5 °C 12.1 °C 1012.8 hPa Calm     97% 0.5 mm 0 W/m2
04:27 12.5 °C 12.1 °C 1013.1 hPa NW 2.6 km/h 5.0 km/h 97% 0.5 mm 0 W/m2
04:47 12.3 °C 11.8 °C 1012.8 hPa NNW 2.6 km/h 3.5 km/h 97% 1.0 mm 0 W/m2
04:52 12.3 °C 11.8 °C 1012.8 hPa NNW 5.0 km/h 6.1 km/h 97% 0.5 mm 0 W/m2
04:57 12.2 °C 11.7 °C 1012.8 hPa NNW 2.6 km/h 6.1 km/h 97% 0.5 mm 0 W/m2
05:02 12.1 °C 11.7 °C 1012.8 hPa NNW 1.1 km/h 6.1 km/h 97% 0.5 mm 0 W/m2
05:07 12.1 °C 11.7 °C 1012.8 hPa NNW 3.5 km/h 5.0 km/h 97% 0.5 mm 0 W/m2
05:12 12.1 °C 11.7 °C 1012.4 hPa Calm   5.0 km/h 97% 1.0 mm 0 W/m2
05:15 12.1 °C 11.7 °C 1012.8 hPa Calm   5.0 km/h 97% 0.5 mm 0 W/m2
05:20 12.1 °C 11.7 °C 1012.8 hPa NNE 1.1 km/h 3.5 km/h 97% 0.5 mm 0 W/m2
05:30 12.0 °C 11.6 °C 1012.4 hPa Calm   2.6 km/h 97% 0.5 mm 0 W/m2
05:35 12.0 °C 11.6 °C 1012.4 hPa ENE 1.1 km/h 2.6 km/h 97% 0.5 mm 0 W/m2
05:40 12.1 °C 11.7 °C 1012.4 hPa NNE 2.6 km/h 3.5 km/h 97% 0.5 mm 0 W/m2
05:45 12.0 °C 11.6 °C 1012.1 hPa North 1.1 km/h 3.5 km/h 97% 0.5 mm 0 W/m2
05:50 12.1 °C 11.7 °C 1012.1 hPa ENE 1.1 km/h 5.0 km/h 97% 0.5 mm 0 W/m2
06:06 12.0 °C 11.6 °C 1012.1 hPa NNE 1.1 km/h 2.6 km/h 97% 0.5 mm 0 W/m2
06:11 11.9 °C 11.6 °C 1012.1 hPa Calm   3.5 km/h 98% 0.3 mm 0 W/m2
06:16 11.9 °C 11.6 °C 1012.1 hPa Calm   3.5 km/h 98% 0.3 mm 0 W/m2
06:21 11.8 °C 11.5 °C 1012.1 hPa Calm   2.6 km/h 98% 0.3 mm 0 W/m2
06:26 11.8 °C 11.5 °C 1012.1 hPa Calm   1.1 km/h 98% 0.3 mm 0 W/m2
06:31 11.8 °C 11.5 °C 1012.1 hPa NNW 1.1 km/h 2.6 km/h 98% 0.0 mm 0 W/m2
06:36 11.9 °C 11.6 °C 1012.1 hPa NW 1.1 km/h 2.6 km/h 98% 0.0 mm 0 W/m2
06:41 11.9 °C 11.6 °C 1012.1 hPa Calm   3.5 km/h 98% 0.0 mm 0 W/m2
06:46 11.9 °C 11.6 °C 1012.1 hPa NNW 1.1 km/h 3.5 km/h 98% 0.0 mm 1 W/m2
06:51 12.0 °C 11.6 °C 1012.1 hPa North 1.1 km/h 3.5 km/h 97% 0.0 mm 3 W/m2
06:56 12.0 °C 11.6 °C 1012.4 hPa North 1.1 km/h 3.5 km/h 97% 0.0 mm 4 W/m2
07:01 12.0 °C 11.6 °C 1012.1 hPa North 1.1 km/h 3.5 km/h 97% 0.0 mm 4 W/m2
07:06 12.0 °C 11.6 °C 1012.1 hPa North 2.6 km/h 3.5 km/h 97% 0.0 mm 5 W/m2
07:11 12.0 °C 11.6 °C 1012.1 hPa NNW 2.6 km/h 3.5 km/h 97% 0.0 mm 2 W/m2
07:16 12.0 °C 11.6 °C 1012.8 hPa NNW 2.6 km/h 5.0 km/h 97% 0.0 mm 3 W/m2
07:21 12.0 °C 11.6 °C 1012.8 hPa NNW 3.5 km/h 6.1 km/h 97% 0.0 mm 4 W/m2
07:26 12.0 °C 11.6 °C 1012.8 hPa NNW 2.6 km/h 6.1 km/h 97% 0.0 mm 3 W/m2
07:31 12.0 °C 11.6 °C 1012.8 hPa North 1.1 km/h 6.1 km/h 97% 0.3 mm 2 W/m2
07:36 12.0 °C 11.6 °C 1012.8 hPa North 1.1 km/h 5.0 km/h 97% 0.3 mm 1 W/m2
07:41 12.0 °C 11.6 °C 1012.8 hPa Calm   3.5 km/h 97% 0.3 mm 2 W/m2
07:46 12.0 °C 11.6 °C 1012.8 hPa Calm   3.5 km/h 97% 0.5 mm 3 W/m2
07:51 12.0 °C 11.6 °C 1012.8 hPa Calm   2.6 km/h 97% 0.5 mm 4 W/m2
07:56 12.0 °C 11.6 °C 1012.8 hPa Calm   1.1 km/h 97% 0.5 mm 4 W/m2
08:01 12.1 °C 11.7 °C 1012.8 hPa NNW 2.6 km/h 3.5 km/h 97% 0.5 mm 9 W/m2
08:06 12.1 °C 11.7 °C 1012.8 hPa North 1.1 km/h 3.5 km/h 97% 1.0 mm 11 W/m2
08:11 12.1 °C 11.7 °C 1012.8 hPa Calm   3.5 km/h 97% 1.3 mm 10 W/m2
08:16 12.1 °C 11.7 °C 1012.4 hPa Calm   3.5 km/h 97% 1.3 mm 16 W/m2
08:21 12.2 °C 11.7 °C 1012.8 hPa Calm     97% 1.3 mm 16 W/m2
08:26 12.2 °C 11.7 °C 1012.8 hPa Calm     97% 1.5 mm 23 W/m2
08:31 12.2 °C 11.7 °C 1012.4 hPa Calm     97% 1.5 mm 26 W/m2
08:36 12.3 °C 11.8 °C 1012.4 hPa Calm     97% 1.5 mm 30 W/m2
08:41 12.4 °C 11.9 °C 1012.4 hPa Calm     97% 1.5 mm 43 W/m2
08:46 12.5 °C 12.1 °C 1012.4 hPa SW 2.6 km/h 3.5 km/h 97% 1.3 mm 39 W/m2
08:51 12.5 °C 12.1 °C 1012.4 hPa SW 1.1 km/h 3.5 km/h 97% 1.5 mm 38 W/m2
08:56 12.5 °C 12.1 °C 1012.8 hPa Calm   3.5 km/h 97% 1.5 mm 39 W/m2
09:01 12.6 °C 12.2 °C 1012.4 hPa SW 1.1 km/h 3.5 km/h 97% 1.5 mm 40 W/m2
09:06 12.7 °C 12.2 °C 1012.4 hPa Calm   3.5 km/h 97% 1.3 mm 45 W/m2
09:11 12.9 °C 12.4 °C 1012.4 hPa Calm   3.5 km/h 97% 1.0 mm 48 W/m2
09:16 12.9 °C 12.4 °C 1012.4 hPa NW 1.1 km/h 3.5 km/h 97% 1.0 mm 49 W/m2
09:21 12.9 °C 12.4 °C 1012.4 hPa Calm   3.5 km/h 97% 0.5 mm 50 W/m2
09:26 13.1 °C 12.9 °C 1012.4 hPa Calm   2.6 km/h 99% 0.5 mm 58 W/m2
09:31 13.2 °C 13.1 °C 1012.8 hPa NNW 3.5 km/h 6.1 km/h 99% 0.5 mm 83 W/m2
09:36 13.3 °C 13.2 °C 1012.8 hPa North 2.6 km/h 6.1 km/h 99% 0.5 mm 98 W/m2
09:46 13.4 °C 13.3 °C 1012.4 hPa Calm   5.0 km/h 99% 0.5 mm 89 W/m2
09:51 13.5 °C 13.3 °C 1012.4 hPa Calm   5.0 km/h 99% 0.3 mm 79 W/m2
09:56 13.7 °C 13.6 °C 1012.4 hPa Calm   1.1 km/h 99% 0.3 mm 106 W/m2
10:01 14.0 °C 13.8 °C 1012.4 hPa Calm   1.1 km/h 99% 0.3 mm 99 W/m2
10:06 14.1 °C 13.9 °C 1012.1 hPa ESE 1.1 km/h 3.5 km/h 99% 0.3 mm 126 W/m2
10:11 14.1 °C 13.9 °C 1012.4 hPa ESE 1.1 km/h 3.5 km/h 99% 0.3 mm 142 W/m2
10:16 14.1 °C 13.9 °C 1012.4 hPa ESE 1.1 km/h 3.5 km/h 99% 0.3 mm 104 W/m2
10:21 14.1 °C 13.9 °C 1012.1 hPa South 2.6 km/h 5.0 km/h 99% 0.3 mm 133 W/m2
10:26 14.0 °C 13.8 °C 1012.4 hPa SSW 3.5 km/h 7.2 km/h 99% 0.3 mm 140 W/m2
10:31 14.0 °C 13.8 °C 1012.4 hPa SW 6.1 km/h 9.7 km/h 99% 0.0 mm 151 W/m2
10:36 14.2 °C 14.1 °C 1012.4 hPa SW 3.5 km/h 9.7 km/h 99% 0.0 mm 173 W/m2
10:41 14.4 °C 14.3 °C 1012.4 hPa SW 3.5 km/h 8.7 km/h 99% 0.0 mm 162 W/m2
10:46 14.4 °C 14.3 °C 1012.4 hPa SW 2.6 km/h 7.2 km/h 99% 0.0 mm 158 W/m2
10:51 14.7 °C 14.6 °C 1012.8 hPa SW 5.0 km/h 7.2 km/h 99% 0.0 mm 144 W/m2
10:56 14.6 °C 14.4 °C 1012.4 hPa SSW 5.0 km/h 9.7 km/h 99% 0.0 mm 156 W/m2
11:01 14.7 °C 14.6 °C 1012.4 hPa SSW 5.0 km/h 9.7 km/h 99% 0.0 mm 146 W/m2
11:06 14.6 °C 14.4 °C 1012.4 hPa SW 5.0 km/h 8.7 km/h 99% 0.0 mm 165 W/m2
11:11 14.8 °C 14.7 °C 1012.1 hPa SW 3.5 km/h 8.7 km/h 99% 0.0 mm 190 W/m2
11:16 14.9 °C 14.8 °C 1012.1 hPa SW 7.2 km/h 9.7 km/h 99% 0.0 mm 211 W/m2
11:21 15.0 °C 14.8 °C 1012.4 hPa SW 5.0 km/h 9.7 km/h 99% 0.0 mm 162 W/m2
11:26 15.1 °C 14.9 °C 1012.1 hPa SW 1.1 km/h 8.7 km/h 99% 0.0 mm 181 W/m2
11:31 15.4 °C 15.1 °C 1012.1 hPa Calm   8.7 km/h 98% 0.0 mm 286 W/m2
11:36 15.9 °C 15.6 °C 1012.1 hPa WSW 2.6 km/h 5.0 km/h 98% 0.0 mm 319 W/m2
11:41 16.4 °C 15.8 °C 1012.1 hPa South 1.1 km/h 5.0 km/h 96% 0.0 mm 394 W/m2
11:46 16.8 °C 16.0 °C 1012.1 hPa Calm   5.0 km/h 95% 0.0 mm 363 W/m2
11:51 17.6 °C 16.4 °C 1012.1 hPa Calm   5.0 km/h 93% 0.0 mm 285 W/m2
11:56 18.0 °C 17.1 °C 1012.1 hPa Calm   2.6 km/h 94% 0.0 mm 286 W/m2
12:01 17.9 °C 16.2 °C 1012.1 hPa NNE 1.1 km/h 3.5 km/h 90% 0.0 mm 287 W/m2
12:06 18.0 °C 16.2 °C 1012.1 hPa Calm   5.0 km/h 89% 0.0 mm 293 W/m2
12:11 18.1 °C 16.3 °C 1012.1 hPa NNW 1.1 km/h 5.0 km/h 89% 0.0 mm 201 W/m2
12:16 17.7 °C 15.5 °C 1012.1 hPa NNW 2.6 km/h 5.0 km/h 87% 0.0 mm 130 W/m2
12:21 17.3 °C 15.1 °C 1012.1 hPa WNW 3.5 km/h 6.1 km/h 87% 0.0 mm 123 W/m2
12:23 17.1 °C 15.1 °C 1012.1 hPa West 2.6 km/h 6.1 km/h 88% 0.0 mm 107 W/m2
12:28 16.6 °C 14.9 °C 1012.1 hPa SW 2.6 km/h 6.1 km/h 90% 0.0 mm 78 W/m2
12:38 15.5 °C 14.6 °C 1011.4 hPa SSW 7.2 km/h 13.4 km/h 94% 0.0 mm 169 W/m2
12:43 15.5 °C 14.9 °C 1011.7 hPa SSW 6.1 km/h 13.4 km/h 96% 0.0 mm 496 W/m2
12:48 15.8 °C 15.3 °C 1011.4 hPa SSW 8.7 km/h 14.8 km/h 97% 0.0 mm 420 W/m2
12:53 15.8 °C 15.5 °C 1011.7 hPa SSW 6.1 km/h 14.8 km/h 98% 0.0 mm 89 W/m2
12:58 15.5 °C 15.1 °C 1011.7 hPa SSW 7.2 km/h 14.8 km/h 97% 0.0 mm 82 W/m2
13:03 15.2 °C 14.7 °C 1011.7 hPa SW 8.7 km/h 14.8 km/h 97% 0.0 mm 181 W/m2
13:08 15.2 °C 14.7 °C 1012.1 hPa SSW 6.1 km/h 14.8 km/h 97% 0.0 mm 104 W/m2
13:13 15.1 °C 14.8 °C 1011.7 hPa South 9.7 km/h 11.1 km/h 98% 0.3 mm 125 W/m2
13:18 14.8 °C 14.7 °C 1011.7 hPa SSW 8.7 km/h 13.4 km/h 99% 0.5 mm 61 W/m2
13:23 14.6 °C 14.4 °C 1011.4 hPa SW 7.2 km/h 13.4 km/h 99% 0.5 mm 40 W/m2
13:28 14.3 °C 14.2 °C 1011.4 hPa SSW 8.7 km/h 14.8 km/h 99% 0.5 mm 38 W/m2
13:33 14.1 °C 13.9 °C 1011.7 hPa SW 9.7 km/h 14.8 km/h 99% 3.0 mm 52 W/m2
13:43 14.0 °C 13.8 °C 1011.7 hPa South 5.0 km/h 18.3 km/h 99% 3.8 mm 45 W/m2
13:48 14.0 °C 13.8 °C 1011.7 hPa South 5.0 km/h 8.7 km/h 99% 4.3 mm 56 W/m2
13:53 14.1 °C 13.9 °C 1011.4 hPa SSE 1.1 km/h 6.1 km/h 99% 4.3 mm 64 W/m2
13:58 14.1 °C 13.9 °C 1011.4 hPa SSE 6.1 km/h 7.2 km/h 99% 4.6 mm 82 W/m2
14:03 14.3 °C 14.2 °C 1011.4 hPa SSE 2.6 km/h 7.2 km/h 99% 4.6 mm 184 W/m2
14:08 14.7 °C 14.6 °C 1011.4 hPa SSE 2.6 km/h 6.1 km/h 99% 4.6 mm 200 W/m2
14:13 15.0 °C 14.8 °C 1011.4 hPa Calm   6.1 km/h 99% 4.3 mm 234 W/m2
14:18 15.2 °C 15.1 °C 1011.4 hPa South 3.5 km/h 8.7 km/h 99% 4.3 mm 254 W/m2
14:23 15.2 °C 15.1 °C 1011.1 hPa South 5.0 km/h 9.7 km/h 99% 4.3 mm 182 W/m2
14:28 15.1 °C 14.9 °C 1011.1 hPa South 6.1 km/h 9.7 km/h 99% 4.3 mm 120 W/m2
14:33 15.1 °C 14.9 °C 1011.1 hPa South 3.5 km/h 8.7 km/h 99% 1.8 mm 71 W/m2
14:38 15.0 °C 14.8 °C 1011.1 hPa South 2.6 km/h 7.2 km/h 99% 1.0 mm 52 W/m2
14:43 14.8 °C 14.7 °C 1011.1 hPa Calm   6.1 km/h 99% 1.0 mm 38 W/m2
14:48 14.9 °C 14.8 °C 1011.1 hPa Calm   5.0 km/h 99% 0.5 mm 44 W/m2
14:53 14.8 °C 14.7 °C 1011.1 hPa South 5.0 km/h 7.2 km/h 99% 1.3 mm 91 W/m2
14:58 14.7 °C 14.6 °C 1010.7 hPa South 3.5 km/h 8.7 km/h 99% 1.0 mm 138 W/m2
15:03 14.9 °C 14.8 °C 1010.7 hPa SSE 2.6 km/h 12.2 km/h 99% 1.0 mm 108 W/m2
15:08 15.0 °C 14.8 °C 1010.7 hPa SE 2.6 km/h 12.2 km/h 99% 1.0 mm 119 W/m2
15:13 15.0 °C 14.8 °C 1010.7 hPa SE 2.6 km/h 8.7 km/h 99% 1.3 mm 170 W/m2
15:18 15.2 °C 15.1 °C 1010.4 hPa SSE 2.6 km/h 6.1 km/h 99% 1.0 mm 177 W/m2
15:23 15.3 °C 15.2 °C 1010.7 hPa SSE 3.5 km/h 8.7 km/h 99% 1.0 mm 172 W/m2
15:28 15.5 °C 15.3 °C 1010.4 hPa SE 5.0 km/h 8.7 km/h 99% 1.0 mm 186 W/m2
15:38 15.8 °C 15.7 °C 1010.0 hPa SE 5.0 km/h 9.7 km/h 99% 1.0 mm 298 W/m2
15:43 16.3 °C 16.0 °C 1010.0 hPa SE 7.2 km/h 9.7 km/h 98% 1.0 mm 228 W/m2
15:48 16.2 °C 15.9 °C 1010.0 hPa ESE 3.5 km/h 9.7 km/h 98% 1.0 mm 172 W/m2
15:53 16.2 °C 15.9 °C 1010.0 hPa ESE 6.1 km/h 11.1 km/h 98% 0.3 mm 155 W/m2
15:58 16.3 °C 15.7 °C 1010.0 hPa East 6.1 km/h 13.4 km/h 96% 0.3 mm 168 W/m2
16:03 16.5 °C 15.6 °C 1010.0 hPa East 3.5 km/h 13.4 km/h 94% 0.3 mm 169 W/m2
16:08 16.6 °C 15.3 °C 1010.0 hPa East 6.1 km/h 12.2 km/h 92% 0.3 mm 149 W/m2
16:13 16.8 °C 15.3 °C 1010.0 hPa East 9.7 km/h 13.4 km/h 91% 0.0 mm 169 W/m2
16:19 17.1 °C 14.9 °C 1010.0 hPa East 11.1 km/h 18.3 km/h 87% 0.0 mm 203 W/m2
16:24 17.2 °C 14.8 °C 1010.0 hPa East 9.7 km/h 18.3 km/h 86% 0.0 mm 218 W/m2
16:27 17.3 °C 14.9 °C 1010.0 hPa East 9.7 km/h 18.3 km/h 86% 0.0 mm 170 W/m2
16:32 17.3 °C 14.9 °C 1010.0 hPa East 3.5 km/h 14.8 km/h 86% 0.0 mm 212 W/m2
16:34 17.3 °C 14.8 °C 1010.0 hPa ESE 13.4 km/h 15.8 km/h 85% 0.0 mm 226 W/m2
16:41 17.6 °C 14.9 °C 1010.0 hPa ESE 6.1 km/h 17.2 km/h 84% 0.0 mm 202 W/m2
16:46 17.4 °C 14.5 °C 1010.0 hPa East 8.7 km/h 17.2 km/h 83% 0.0 mm 151 W/m2
16:51 17.2 °C 14.5 °C 1010.0 hPa ENE 9.7 km/h 15.8 km/h 84% 0.0 mm 142 W/m2
16:56 17.1 °C 14.7 °C 1010.0 hPa East 9.7 km/h 15.8 km/h 86% 0.0 mm 111 W/m2
17:01 16.8 °C 14.6 °C 1010.0 hPa East 14.8 km/h 24.5 km/h 87% 0.0 mm 132 W/m2
17:05 16.6 °C 14.8 °C 1010.0 hPa ENE 14.8 km/h 24.5 km/h 89% 0.0 mm 112 W/m2
17:10 16.2 °C 14.7 °C 1010.0 hPa ENE 6.1 km/h 24.5 km/h 91% 0.3 mm 59 W/m2
17:15 15.7 °C 14.7 °C 1010.0 hPa NE 7.2 km/h 17.2 km/h 94% 0.3 mm 39 W/m2
17:20 15.5 °C 14.7 °C 1010.0 hPa NE 3.5 km/h 14.8 km/h 95% 1.0 mm 29 W/m2
17:25 15.3 °C 14.5 °C 1010.0 hPa NE 6.1 km/h 9.7 km/h 95% 1.0 mm 21 W/m2
17:30 15.1 °C 14.6 °C 1010.0 hPa ENE 5.0 km/h 9.7 km/h 97% 1.5 mm 13 W/m2
17:35 15.0 °C 14.7 °C 1010.0 hPa East 3.5 km/h 8.7 km/h 98% 1.5 mm 10 W/m2
17:40 14.9 °C 14.8 °C 1010.0 hPa ENE 3.5 km/h 8.7 km/h 99% 1.8 mm 10 W/m2
17:45 14.8 °C 14.7 °C 1009.7 hPa ENE 2.6 km/h 9.7 km/h 99% 2.0 mm 10 W/m2
17:50 14.7 °C 14.6 °C 1010.0 hPa ENE 5.0 km/h 9.7 km/h 99% 2.0 mm 11 W/m2
18:00 14.7 °C 14.6 °C 1009.7 hPa NE 1.1 km/h 8.7 km/h 99% 2.0 mm 22 W/m2
18:06 14.7 °C 14.6 °C 1010.0 hPa NE 1.1 km/h 8.7 km/h 99% 2.0 mm 22 W/m2
18:11 14.7 °C 14.6 °C 1009.7 hPa ENE 2.6 km/h 6.1 km/h 99% 2.0 mm 27 W/m2
18:16 14.7 °C 14.6 °C 1009.7 hPa Calm   6.1 km/h 99% 1.8 mm 25 W/m2
18:21 14.8 °C 14.7 °C 1009.7 hPa NE 3.5 km/h 6.1 km/h 99% 1.5 mm 21 W/m2
18:26 14.8 °C 14.7 °C 1009.7 hPa ENE 6.1 km/h 12.2 km/h 99% 1.3 mm 16 W/m2
18:31 14.9 °C 14.8 °C 1009.4 hPa ENE 5.0 km/h 12.2 km/h 99% 1.3 mm 19 W/m2
18:36 14.8 °C 14.5 °C 1009.7 hPa ENE 6.1 km/h 9.7 km/h 98% 1.0 mm 20 W/m2
18:41 14.8 °C 14.3 °C 1009.7 hPa ENE 2.6 km/h 9.7 km/h 97% 0.5 mm 14 W/m2
18:51 14.8 °C 14.3 °C 1009.7 hPa ENE 5.0 km/h 11.1 km/h 97% 0.5 mm 8 W/m2
18:56 14.8 °C 14.2 °C 1009.4 hPa ENE 1.1 km/h 11.1 km/h 96% 0.5 mm 6 W/m2
19:01 14.8 °C 14.2 °C 1009.4 hPa NE 3.5 km/h 11.1 km/h 96% 0.3 mm 3 W/m2
19:06 14.8 °C 14.0 °C 1009.4 hPa NE 1.1 km/h 9.7 km/h 95% 0.3 mm 2 W/m2
19:11 14.8 °C 14.0 °C 1009.4 hPa ENE 3.5 km/h 9.7 km/h 95% 0.3 mm 0 W/m2
19:16 14.8 °C 14.0 °C 1009.4 hPa East 3.5 km/h 9.7 km/h 95% 0.3 mm 0 W/m2
19:21 14.8 °C 13.8 °C 1009.4 hPa ENE 5.0 km/h 9.7 km/h 94% 0.3 mm 0 W/m2
19:26 14.7 °C 13.8 °C 1009.4 hPa ENE 3.5 km/h 11.1 km/h 94% 0.0 mm 0 W/m2
19:31 14.9 °C 13.8 °C 1009.4 hPa ENE 3.5 km/h 14.8 km/h 93% 0.0 mm 0 W/m2
19:36 14.9 °C 13.6 °C 1009.7 hPa ENE 7.2 km/h 14.8 km/h 92% 0.0 mm 0 W/m2
19:41 14.9 °C 13.4 °C 1009.7 hPa ENE 3.5 km/h 12.2 km/h 91% 0.0 mm 0 W/m2
19:46 14.8 °C 13.5 °C 1009.7 hPa NE 3.5 km/h 12.2 km/h 92% 0.0 mm 0 W/m2
19:51 14.7 °C 13.4 °C 1009.7 hPa ENE 6.1 km/h 7.2 km/h 92% 0.0 mm 0 W/m2
19:56 14.7 °C 13.4 °C 1009.4 hPa ENE 6.1 km/h 9.7 km/h 92% 0.0 mm 0 W/m2
20:01 14.8 °C 13.5 °C 1009.7 hPa NE 6.1 km/h 11.1 km/h 92% 0.0 mm 0 W/m2
20:06 14.8 °C 13.5 °C 1009.4 hPa ENE 5.0 km/h 13.4 km/h 92% 0.0 mm 0 W/m2
20:11 14.7 °C 13.4 °C 1009.4 hPa ENE 8.7 km/h 13.4 km/h 92% 0.0 mm 0 W/m2
20:16 14.8 °C 13.3 °C 1009.7 hPa ENE 7.2 km/h 17.2 km/h 91% 0.0 mm 0 W/m2
20:21 14.9 °C 13.4 °C 1009.7 hPa NE 8.7 km/h 17.2 km/h 91% 0.0 mm 0 W/m2
20:26 15.0 °C 13.2 °C 1009.7 hPa NE 9.7 km/h 17.2 km/h 89% 0.0 mm 0 W/m2
20:36 14.9 °C 13.3 °C 1009.7 hPa NE 2.6 km/h 12.2 km/h 90% 0.0 mm 0 W/m2
20:41 14.8 °C 13.2 °C 1009.7 hPa ENE 5.0 km/h 11.1 km/h 90% 0.0 mm 0 W/m2
20:46 14.8 °C 13.3 °C 1009.7 hPa East 1.1 km/h 8.7 km/h 91% 0.0 mm 0 W/m2
20:51 14.7 °C 13.3 °C 1009.7 hPa East 3.5 km/h 12.2 km/h 91% 0.0 mm 0 W/m2
20:56 14.7 °C 13.3 °C 1009.7 hPa ENE 3.5 km/h 14.8 km/h 91% 0.0 mm 0 W/m2
21:01 14.7 °C 13.3 °C 1009.7 hPa ENE 5.0 km/h 14.8 km/h 91% 0.0 mm 0 W/m2
21:06 14.6 °C 13.2 °C 1009.7 hPa ENE 2.6 km/h 11.1 km/h 91% 0.0 mm 0 W/m2
21:11 14.6 °C 13.2 °C 1009.7 hPa ENE 2.6 km/h 9.7 km/h 91% 0.0 mm 0 W/m2
21:16 14.5 °C 13.2 °C 1009.7 hPa ENE 5.0 km/h 9.7 km/h 92% 0.0 mm 0 W/m2
21:21 14.5 °C 13.2 °C 1009.7 hPa ENE 5.0 km/h 9.7 km/h 92% 0.0 mm 0 W/m2
21:26 14.5 °C 13.2 °C 1009.7 hPa ENE 2.6 km/h 9.7 km/h 92% 0.0 mm 0 W/m2
21:31 14.5 °C 13.2 °C 1009.4 hPa Calm   8.7 km/h 92% 0.0 mm 0 W/m2
21:36 14.4 °C 13.1 °C 1009.4 hPa Calm   5.0 km/h 92% 0.0 mm 0 W/m2
21:41 14.3 °C 13.0 °C 1009.7 hPa Calm   3.5 km/h 92% 0.0 mm 0 W/m2
21:46 14.3 °C 13.0 °C 1009.7 hPa Calm   1.1 km/h 92% 0.0 mm 0 W/m2
21:51 14.1 °C 12.8 °C 1009.4 hPa Calm     92% 0.0 mm 0 W/m2
21:56 14.0 °C 12.9 °C 1009.4 hPa Calm     93% 0.0 mm 0 W/m2
22:01 13.8 °C 12.8 °C 1009.4 hPa Calm     94% 0.0 mm 0 W/m2
22:06 13.8 °C 12.8 °C 1009.4 hPa Calm     94% 0.0 mm 0 W/m2
22:11 13.6 °C 12.8 °C 1009.4 hPa Calm     95% 0.0 mm 0 W/m2
22:16 13.6 °C 12.8 °C 1009.4 hPa Calm     95% 0.0 mm 0 W/m2
22:21 13.5 °C 12.9 °C 1009.4 hPa Calm     96% 0.0 mm 0 W/m2
22:26 13.5 °C 12.9 °C 1009.4 hPa Calm     96% 0.0 mm 0 W/m2
22:31 13.6 °C 13.0 °C 1009.4 hPa Calm     96% 0.0 mm 0 W/m2
22:36 13.6 °C 13.0 °C 1009.4 hPa Calm     96% 0.0 mm 0 W/m2
22:41 13.5 °C 13.1 °C 1009.4 hPa Calm   1.1 km/h 97% 0.0 mm 0 W/m2
22:51 13.6 °C 13.3 °C 1009.0 hPa Calm   8.7 km/h 98% 0.0 mm 0 W/m2
22:56 13.6 °C 13.3 °C 1009.4 hPa NE 2.6 km/h 6.1 km/h 98% 0.0 mm 0 W/m2
23:13 13.6 °C 13.3 °C 1009.0 hPa Calm   6.1 km/h 98% 0.0 mm 0 W/m2
23:18 13.5 °C 13.2 °C 1009.0 hPa Calm   6.1 km/h 98% 0.0 mm 0 W/m2
23:23 13.5 °C 13.2 °C 1008.7 hPa Calm   1.1 km/h 98% 0.0 mm 0 W/m2
23:28 13.7 °C 13.4 °C 1008.7 hPa Calm   1.1 km/h 98% 0.0 mm 0 W/m2
23:33 13.7 °C 13.4 °C 1008.7 hPa Calm   1.1 km/h 98% 0.0 mm 0 W/m2
23:38 13.6 °C 13.1 °C 1008.7 hPa Calm   1.1 km/h 97% 0.0 mm 0 W/m2
23:43 13.5 °C 13.1 °C 1008.7 hPa Calm   1.1 km/h 97% 0.0 mm 0 W/m2
23:48 13.5 °C 13.1 °C 1008.7 hPa Calm     97% 0.0 mm 0 W/m2
23:53 13.4 °C 13.1 °C 1008.7 hPa Calm     98% 0.0 mm 0 W/m2
23:58 13.3 °C 13.0 °C 1008.7 hPa Calm     98% 0.0 mm 0 W/m2
Northern Hawkes Bay. New Zealand Historic Data
Compliments of Weather Underground - 2 mb